Portada
METAR-TAF:

METAR-TAF

Aeropuertos :

Resistencia, Argentina

Aeropuerto Internacional de Resistencia

latitud: 27-27S, longitud: 059-03W, altitud: 53 m

Observación

El informe se hizo hace 57 minutos, a las 19:00 UTC
Viento 7 kt del este, variando entre noreste y sureste
Temperatura 30°C
Humedad 19%
Presión 1009 hPa
Visibilidad 10 km o más
sin nubes por debajo de 1500 m y sin presencia de cumulonimbus.

METAR: SARE 191900Z 10007KT 040V140 CAVOK 30/04 Q1009

Hora: 16:57 (19:57 UTC)

Pronóstico

El informe se hizo hace 2 horas y 57 minutos, a las 17:00 UTC
Pronóstico válido del 19 a las 18 UTC al 20 a las 18 UTC
Viento 10 kt del este-noreste
Visibilidad 10 km o más
sin nubes por debajo de 1500 m y sin presencia de cumulonimbus.

TAF: SARE 191700Z 1918/2018 07010KT CAVOK TX31/2018Z TN10/2009Z

Observaciones y pronósticos meteorológicos de más de 4000 aeropuertos (mensajes METAR y TAF).

Los puntos amarillos y rojos representan las estaciones disponibles.

Ponga el ratón en el punto deseado para ver el nombre de la estación.

Haga clic para ver las observaciones y los pronósticos meteorológicos.

Para cambiar el mapa : haga clic en los botones verdes con una cruz de color negro para hacer un zoom, en el botón verde con un guión para alejar o en las flechas verdes para mapas adyacentes.


METAR-TAF: